Andersontown, Pennsylvania
Current Conditions -  °F | °C
As of 12:56 AM on Thursday 23 Oct 2014 (Local Time) from KCXY Reporting Station
Overcast Overcast  
Wind Chill: 12°   Ceiling: 2600
Heat Index: 12°   Visibility: 10mi
Dew Point:   Wind: 18mph
Humidity: 69%   Direction: 340°NNW
Pressure: 29.92"   Gusts: 28mph
Location:  40.208°N, 77.0098°W
Report Text: KCXY 230456Z AUTO 34016G24KT 10SM OVC026 12/06 A2992 RMK AO2 SLP133 T01170061 401330117
Loading
Personal Weather Stations






























Interactive Weather Map
Tropical Storm Tracking
New forecast layout! Learn more

10-Day Weather Forecast

Advertisements
Track Severe Weather on mobile